Time;durP1;ratioP1;P1;durP2;ratioP2;P2;SDS_P1;SDS_P2;PMS_P1;PMS_P2;Temp;Humidity;BMP_temperature;BMP_pressure;BME280_temperature;BME280_humidity;BME280_pressure;Samples;Min_cycle;Max_cycle;Signal;HPM_P1;HPM_P2
2022/11/10 00:00:09;;;;;;;14.90;6.75;;;9.20;99.90;;;;;;5069729;28;20028;-33
2022/11/10 00:02:35;;;;;;;25.80;11.77;;;9.20;99.90;;;;;;5067891;28;20041;-33
2022/11/10 00:05:00;;;;;;;20.10;9.60;;;9.10;99.90;;;;;;5078305;28;20063;-34
2022/11/10 00:07:27;;;;;;;13.10;7.03;;;9.10;99.90;;;;;;5072785;28;20141;-33
2022/11/10 00:09:53;;;;;;;20.13;7.85;;;9.10;99.90;;;;;;5073118;28;20040;-33
2022/11/10 00:12:20;;;;;;;18.73;9.18;;;9.10;99.90;;;;;;5072791;28;20474;-33
2022/11/10 00:17:33;;;;;;;19.50;8.15;;;9.10;99.90;;;;;;5071756;28;20113;-32
2022/11/10 00:19:59;;;;;;;20.45;7.85;;;9.00;99.90;;;;;;5079521;28;20025;-33
2022/11/10 00:22:25;;;;;;;18.42;8.07;;;9.00;99.90;;;;;;5056718;28;20029;-32
2022/11/10 00:24:51;;;;;;;15.73;7.53;;;9.00;99.90;;;;;;5066540;28;20036;-33
2022/11/10 00:27:17;;;;;;;16.55;8.55;;;9.00;99.90;;;;;;5055754;28;20135;-31
2022/11/10 00:29:42;;;;;;;17.15;7.90;;;9.00;99.90;;;;;;5056291;28;20041;-35
2022/11/10 00:32:08;;;;;;;15.73;7.80;;;8.90;99.90;;;;;;5063796;28;20103;-33
2022/11/10 00:34:35;;;;;;;21.10;8.45;;;9.00;99.90;;;;;;5070584;28;20059;-34
2022/11/10 00:37:01;;;;;;;17.05;8.10;;;9.00;99.90;;;;;;5039162;28;20048;-32
2022/11/10 00:39:27;;;;;;;17.33;7.95;;;8.90;99.90;;;;;;5052450;28;20085;-32
2022/11/10 00:41:52;;;;;;;18.92;8.10;;;9.00;99.90;;;;;;5048266;28;20044;-33
2022/11/10 00:44:18;;;;;;;24.42;9.02;;;9.00;99.90;;;;;;5061548;28;20066;-35
2022/11/10 00:46:44;;;;;;;17.15;7.90;;;9.00;99.90;;;;;;5076808;28;20043;-32
2022/11/10 00:49:10;;;;;;;14.93;7.75;;;9.00;99.90;;;;;;5053871;28;20093;-35
2022/11/10 00:51:36;;;;;;;14.90;8.10;;;8.90;99.90;;;;;;5053458;28;20036;-35
2022/11/10 00:54:03;;;;;;;14.70;7.53;;;8.90;99.90;;;;;;5047390;28;20040;-32
2022/11/10 00:56:29;;;;;;;17.50;7.50;;;8.90;99.90;;;;;;5039844;28;20036;-33
2022/11/10 00:58:54;;;;;;;16.15;6.85;;;8.90;99.90;;;;;;5070396;28;20032;-33
2022/11/10 01:01:23;;;;;;;13.38;6.90;;;8.90;99.90;;;;;;5055485;28;20115;-34
2022/11/10 01:03:50;;;;;;;18.23;7.57;;;8.90;99.90;;;;;;5047118;28;20115;-35
2022/11/10 01:06:17;;;;;;;17.00;7.60;;;8.80;99.90;;;;;;5064186;28;20037;-31
2022/11/10 01:08:43;;;;;;;21.42;8.38;;;8.80;99.90;;;;;;5070301;28;20037;-34
2022/11/10 01:11:16;;;;;;;17.17;7.93;;;8.80;99.90;;;;;;5075257;28;20067;-36
2022/11/10 01:13:43;;;;;;;15.32;8.75;;;8.90;99.90;;;;;;5054282;28;20040;-33
2022/11/10 01:16:21;;;;;;;23.25;9.05;;;8.80;99.90;;;;;;5071777;28;20497;-31
2022/11/10 01:18:56;;;;;;;16.90;7.65;;;8.80;99.90;;;;;;5073188;28;20167;-32
2022/11/10 01:21:22;;;;;;;19.75;8.35;;;8.80;99.90;;;;;;5032321;28;20037;-33
2022/11/10 01:23:49;;;;;;;20.73;8.15;;;8.80;99.90;;;;;;5060851;28;20124;-33
2022/11/10 01:26:15;;;;;;;17.73;6.88;;;8.80;99.90;;;;;;5068717;28;20393;-36
2022/11/10 01:28:41;;;;;;;16.90;7.78;;;8.80;99.90;;;;;;5059684;28;20059;-34
2022/11/10 01:31:11;;;;;;;16.20;8.32;;;8.80;99.90;;;;;;5058680;28;20494;-33
2022/11/10 01:33:38;;;;;;;17.67;8.10;;;8.80;99.90;;;;;;5068016;28;20044;-33
2022/11/10 01:36:05;;;;;;;18.75;7.72;;;8.80;99.90;;;;;;5070082;28;20116;-34
2022/11/10 01:38:33;;;;;;;17.50;7.80;;;8.80;99.90;;;;;;5072361;28;20068;-34
2022/11/10 01:40:59;;;;;;;21.52;8.48;;;8.80;99.90;;;;;;5078105;28;20025;-34
2022/11/10 01:43:26;;;;;;;16.05;7.43;;;8.80;99.90;;;;;;5071351;28;20514;-34
2022/11/10 01:45:59;;;;;;;21.02;8.48;;;8.80;99.90;;;;;;5052179;28;20079;-32
2022/11/10 01:48:43;;;;;;;20.20;8.68;;;8.80;99.90;;;;;;5061434;28;20037;-34
2022/11/10 01:51:14;;;;;;;;;;;8.80;99.90;;;;;;5073425;28;20040;-37
2022/11/10 01:53:43;;;;;;;14.77;7.68;;;8.70;99.90;;;;;;5058468;28;20151;-34
2022/11/10 01:56:11;;;;;;;23.98;8.00;;;8.70;99.90;;;;;;5065139;28;20036;-32
2022/11/10 01:58:41;;;;;;;16.17;7.03;;;8.70;99.90;;;;;;5079118;28;20097;-35
2022/11/10 02:01:07;;;;;;;16.48;7.80;;;8.70;99.90;;;;;;5053251;28;20398;-37
2022/11/10 02:03:42;;;;;;;16.20;7.50;;;8.70;99.90;;;;;;5052189;28;20078;-34
2022/11/10 02:06:09;;;;;;;19.02;7.13;;;8.70;99.90;;;;;;5050018;28;20506;-33
2022/11/10 02:08:36;;;;;;;17.65;7.15;;;8.70;99.90;;;;;;5060302;28;20043;-35
2022/11/10 02:11:03;;;;;;;18.52;7.30;;;8.70;99.90;;;;;;5071435;28;20043;-33
2022/11/10 02:13:29;;;;;;;19.23;7.13;;;8.70;99.90;;;;;;5070952;28;20037;-36
2022/11/10 02:15:55;;;;;;;18.98;6.85;;;8.60;99.90;;;;;;5053632;28;20043;-33
2022/11/10 02:18:21;;;;;;;19.58;7.18;;;8.70;99.90;;;;;;5048880;28;20041;-33
2022/11/10 02:20:47;;;;;;;17.10;7.22;;;8.70;99.90;;;;;;5048753;28;20037;-33
2022/11/10 02:23:50;;;;;;;23.15;7.80;;;8.60;99.90;;;;;;5054720;28;20048;-32
2022/11/10 02:26:20;;;;;;;18.98;8.70;;;8.70;99.90;;;;;;5011318;28;20430;-35
2022/11/10 02:28:46;;;;;;;20.60;7.30;;;8.70;99.90;;;;;;5054421;28;20287;-32
2022/11/10 02:31:12;;;;;;;17.70;7.88;;;8.80;99.90;;;;;;5064302;28;20033;-31
2022/11/10 02:33:38;;;;;;;14.75;6.75;;;8.70;99.90;;;;;;5050847;28;20056;-33
2022/11/10 02:36:04;;;;;;;18.88;7.10;;;8.80;99.90;;;;;;5054618;28;20497;-32
2022/11/10 02:38:30;;;;;;;18.45;7.07;;;8.80;99.90;;;;;;5070197;28;20103;-35
2022/11/10 02:40:56;;;;;;;16.35;7.70;;;8.80;99.90;;;;;;5071642;28;20043;-36
2022/11/10 02:43:22;;;;;;;22.50;9.00;;;8.80;99.90;;;;;;5059639;28;20466;-32
2022/11/10 02:45:51;;;;;;;17.10;8.00;;;8.80;99.90;;;;;;5049234;28;20505;-33
2022/11/10 02:48:16;;;;;;;17.63;8.23;;;8.80;99.90;;;;;;5066945;28;20047;-33
2022/11/10 02:50:43;;;;;;;15.68;8.48;;;8.90;99.90;;;;;;5058601;28;20029;-31
2022/11/10 02:53:08;;;;;;;20.50;9.13;;;8.80;99.90;;;;;;5074700;28;20047;-37
2022/11/10 02:55:34;;;;;;;19.75;9.70;;;8.80;99.90;;;;;;5080689;28;20402;-33
2022/11/10 02:58:00;;;;;;;17.65;9.40;;;8.90;99.90;;;;;;5080104;28;20547;-35
2022/11/10 03:00:27;;;;;;;22.17;10.45;;;8.90;99.90;;;;;;5065665;28;20047;-33
2022/11/10 03:02:57;;;;;;;24.88;9.45;;;8.90;99.90;;;;;;5055325;28;20029;-33
2022/11/10 03:05:23;;;;;;;25.30;10.15;;;9.00;99.90;;;;;;5071251;28;20382;-34
2022/11/10 03:07:54;;;;;;;23.85;10.30;;;9.00;99.90;;;;;;5062407;28;20033;-34
2022/11/10 03:10:20;;;;;;;19.40;10.40;;;9.00;99.90;;;;;;5064328;28;20036;-33
2022/11/10 03:12:46;;;;;;;25.17;10.77;;;9.00;99.90;;;;;;5067396;28;20486;-33
2022/11/10 03:15:13;;;;;;;22.23;11.32;;;9.00;99.90;;;;;;5058350;28;20036;-32
2022/11/10 03:17:39;;;;;;;24.70;11.60;;;9.00;99.90;;;;;;5079998;28;20040;-33
2022/11/10 03:20:06;;;;;;;27.05;13.07;;;9.00;99.90;;;;;;5074335;28;20492;-33
2022/11/10 03:22:32;;;;;;;24.10;12.05;;;9.00;99.90;;;;;;5056616;28;20074;-37
2022/11/10 03:24:57;;;;;;;22.98;11.63;;;9.00;99.90;;;;;;5075502;28;20036;-34
2022/11/10 03:27:23;;;;;;;28.75;12.10;;;9.00;99.90;;;;;;5073389;28;20032;-33
2022/11/10 03:29:49;;;;;;;25.75;12.43;;;9.00;99.90;;;;;;5073920;28;20043;-33
2022/11/10 03:32:15;;;;;;;26.92;12.25;;;9.00;99.90;;;;;;5075040;28;20063;-34
2022/11/10 03:34:40;;;;;;;29.23;12.43;;;9.00;99.90;;;;;;5073400;28;20723;-33
2022/11/10 03:37:06;;;;;;;27.05;12.82;;;9.00;99.90;;;;;;5067819;28;20032;-34
2022/11/10 03:39:32;;;;;;;28.58;13.90;;;8.90;99.90;;;;;;5073472;28;20033;-35
2022/11/10 03:41:58;;;;;;;29.02;11.85;;;8.90;99.90;;;;;;5073550;28;20039;-32
2022/11/10 03:44:23;;;;;;;26.67;12.13;;;8.90;99.90;;;;;;5073876;28;20045;-35
2022/11/10 03:46:49;;;;;;;30.83;12.82;;;8.90;99.90;;;;;;5048439;28;20036;-31
2022/11/10 03:49:15;;;;;;;26.13;12.88;;;8.90;99.90;;;;;;5075574;28;20064;-33
2022/11/10 03:51:41;;;;;;;24.92;12.18;;;8.80;99.90;;;;;;5056623;28;20044;-32
2022/11/10 03:54:06;;;;;;;33.63;13.23;;;8.90;99.90;;;;;;5056337;28;20040;-33
2022/11/10 03:56:32;;;;;;;30.42;13.18;;;8.90;99.90;;;;;;5064733;28;20373;-33
2022/11/10 03:58:58;;;;;;;24.23;11.52;;;8.90;99.90;;;;;;5079473;28;20371;-34
2022/11/10 04:01:24;;;;;;;24.25;12.38;;;8.90;99.90;;;;;;5076693;28;20044;-36
2022/11/10 04:03:49;;;;;;;27.02;12.52;;;8.90;99.90;;;;;;5069565;28;20402;-32
2022/11/10 04:09:00;;;;;;;29.42;12.60;;;8.80;99.90;;;;;;5073262;28;20045;-33
2022/11/10 04:16:59;;;;;;;27.70;14.25;;;8.90;99.90;;;;;;5062835;28;20037;-31
2022/11/10 04:19:25;;;;;;;28.60;13.98;;;8.90;99.90;;;;;;5060156;28;20379;-32
2022/11/10 04:21:51;;;;;;;29.92;13.07;;;8.90;99.90;;;;;;5050442;28;20051;-34
2022/11/10 04:24:17;;;;;;;31.23;14.07;;;8.90;99.90;;;;;;5028620;28;20040;-33
2022/11/10 04:26:44;;;;;;;29.50;15.55;;;9.00;99.90;;;;;;5074899;28;20036;-34
2022/11/10 04:29:11;;;;;;;32.35;14.85;;;8.90;99.90;;;;;;5056392;28;20042;-41
2022/11/10 04:31:39;;;;;;;34.33;15.77;;;9.00;99.90;;;;;;5074665;28;20059;-33
2022/11/10 04:34:11;;;;;;;35.65;16.60;;;9.00;99.90;;;;;;5080750;28;20353;-32
2022/11/10 04:36:39;;;;;;;31.95;16.02;;;9.00;99.90;;;;;;5063198;28;20471;-34
2022/11/10 04:39:06;;;;;;;34.03;16.10;;;9.10;99.90;;;;;;5068466;28;20044;-33
2022/11/10 04:41:33;;;;;;;36.60;17.00;;;9.10;99.90;;;;;;5050588;28;20041;-32
2022/11/10 04:43:59;;;;;;;30.98;15.95;;;9.10;99.90;;;;;;5072837;28;20089;-36
2022/11/10 04:46:31;;;;;;;42.33;18.00;;;9.10;99.90;;;;;;5056099;28;20544;-33
2022/11/10 04:48:57;;;;;;;36.55;17.23;;;9.10;99.90;;;;;;5056708;28;20068;-33
2022/11/10 04:51:26;;;;;;;34.40;18.08;;;9.10;99.90;;;;;;5054252;28;20449;-36
2022/11/10 04:53:52;;;;;;;37.08;18.52;;;9.10;99.90;;;;;;5072774;28;20036;-32
2022/11/10 04:56:20;;;;;;;38.30;17.38;;;9.10;99.90;;;;;;5062178;28;20556;-31
2022/11/10 04:58:46;;;;;;;37.92;18.35;;;9.10;99.90;;;;;;5063773;28;20029;-32
2022/11/10 05:01:14;;;;;;;32.50;17.65;;;9.10;99.90;;;;;;5065180;28;20495;-34
2022/11/10 05:03:42;;;;;;;42.90;20.00;;;9.20;99.90;;;;;;5059441;28;20036;-34
2022/11/10 05:06:08;;;;;;;34.90;18.50;;;9.20;99.90;;;;;;5060159;28;20051;-32
2022/11/10 05:08:35;;;;;;;31.35;16.60;;;9.20;99.90;;;;;;5061573;28;20076;-33
2022/11/10 05:11:01;;;;;;;40.97;20.42;;;9.20;99.90;;;;;;5059857;28;20055;-32
2022/11/10 05:13:27;;;;;;;37.67;18.25;;;9.20;99.90;;;;;;5064155;28;20422;-33
2022/11/10 05:15:52;;;;;;;40.30;19.70;;;9.20;99.90;;;;;;5071046;28;20440;-37
2022/11/10 05:18:18;;;;;;;42.78;21.17;;;9.30;99.90;;;;;;5067352;28;20553;-33
2022/11/10 05:20:46;;;;;;;40.75;22.73;;;9.30;99.90;;;;;;5049277;28;20111;-33
2022/11/10 05:25:56;;;;;;;45.97;23.60;;;9.30;99.90;;;;;;5068500;28;20101;-34
2022/11/10 05:28:22;;;;;;;42.70;22.23;;;9.30;99.90;;;;;;5069379;28;20127;-34
2022/11/10 05:30:47;;;;;;;38.58;19.98;;;9.30;99.90;;;;;;5072184;28;20043;-33
2022/11/10 05:33:13;;;;;;;35.55;19.77;;;9.30;99.90;;;;;;5056490;28;20045;-32
2022/11/10 05:35:39;;;;;;;38.00;22.85;;;9.30;99.90;;;;;;5058385;28;20382;-32
2022/11/10 05:38:05;;;;;;;35.15;19.85;;;9.30;99.90;;;;;;5079397;28;20046;-32
2022/11/10 05:40:32;;;;;;;35.70;20.42;;;9.30;99.90;;;;;;5073861;28;20037;-33
2022/11/10 05:42:58;;;;;;;33.90;19.33;;;9.30;99.90;;;;;;5071890;28;20143;-33
2022/11/10 05:45:26;;;;;;;32.20;19.23;;;9.30;99.90;;;;;;5060495;28;20102;-32
2022/11/10 05:47:53;;;;;;;33.45;20.05;;;9.30;99.90;;;;;;5057821;28;20037;-30
2022/11/10 05:50:20;;;;;;;33.88;19.73;;;9.20;99.90;;;;;;5067441;28;20618;-33
2022/11/10 05:52:55;;;;;;;38.92;21.33;;;9.30;99.90;;;;;;5059286;28;20063;-34
2022/11/10 05:55:24;;;;;;;35.95;20.08;;;9.30;99.90;;;;;;5048510;28;20532;-32
2022/11/10 05:57:51;;;;;;;37.30;19.90;;;9.20;99.90;;;;;;5064604;28;20452;-33
2022/11/10 06:00:22;;;;;;;37.85;19.02;;;9.30;99.90;;;;;;5066072;28;20482;-35
2022/11/10 06:03:02;;;;;;;38.75;18.15;;;9.30;99.90;;;;;;5072683;28;20111;-32
2022/11/10 06:05:30;;;;;;;43.63;20.33;;;9.30;99.90;;;;;;5063479;28;20036;-31
2022/11/10 06:07:57;;;;;;;34.20;18.90;;;9.30;99.90;;;;;;5057254;28;20036;-33
2022/11/10 06:10:23;;;;;;;37.42;20.58;;;9.30;99.90;;;;;;5068736;28;20041;-34
2022/11/10 06:12:50;;;;;;;34.67;19.48;;;9.30;99.90;;;;;;5060015;28;20041;-32
2022/11/10 06:15:15;;;;;;;34.53;19.40;;;9.40;99.90;;;;;;5064621;28;20036;-32
2022/11/10 06:17:42;;;;;;;28.55;18.65;;;9.30;99.90;;;;;;5070221;28;20097;-32
2022/11/10 06:20:08;;;;;;;33.40;17.65;;;9.40;99.90;;;;;;5073330;28;20033;-32
2022/11/10 06:22:34;;;;;;;37.33;18.80;;;9.40;99.90;;;;;;5065240;28;20357;-31
2022/11/10 06:25:00;;;;;;;36.10;18.77;;;9.40;99.90;;;;;;5060184;28;20041;-35
2022/11/10 06:27:26;;;;;;;32.38;17.38;;;9.40;99.90;;;;;;5064304;28;20032;-34
2022/11/10 06:29:51;;;;;;;37.13;18.90;;;9.40;99.90;;;;;;5083679;28;20047;-33
2022/11/10 06:32:17;;;;;;;35.38;20.88;;;9.40;99.90;;;;;;5052222;28;20041;-31
2022/11/10 06:34:43;;;;;;;36.63;17.40;;;9.40;99.90;;;;;;5073756;28;20120;-32
2022/11/10 06:37:09;;;;;;;31.33;18.50;;;9.40;99.90;;;;;;5073463;28;20032;-34
2022/11/10 06:39:34;;;;;;;31.88;16.65;;;9.40;99.90;;;;;;5057117;28;20153;-30
2022/11/10 06:42:00;;;;;;;30.92;16.80;;;9.40;99.90;;;;;;5053726;28;20043;-32
2022/11/10 06:44:26;;;;;;;28.98;16.83;;;9.30;99.90;;;;;;5061456;28;20051;-33
2022/11/10 06:46:51;;;;;;;37.05;17.65;;;9.30;99.90;;;;;;5061051;28;20090;-31
2022/11/10 06:49:17;;;;;;;36.28;18.08;;;9.30;99.90;;;;;;5065336;28;20040;-31
2022/11/10 06:51:43;;;;;;;29.70;16.08;;;9.30;99.90;;;;;;5073839;28;20110;-33
2022/11/10 06:54:09;;;;;;;30.95;16.02;;;9.30;99.90;;;;;;5080215;28;20098;-34
2022/11/10 06:56:35;;;;;;;33.80;16.73;;;9.30;99.90;;;;;;5071892;28;20453;-32
2022/11/10 06:59:01;;;;;;;36.92;19.05;;;9.30;99.90;;;;;;5067969;28;20441;-32
2022/11/10 07:01:27;;;;;;;32.30;16.42;;;9.30;99.90;;;;;;5072854;28;20039;-33
2022/11/10 07:03:53;;;;;;;33.13;17.67;;;9.40;99.90;;;;;;5056467;28;20043;-32
2022/11/10 07:06:20;;;;;;;33.38;17.42;;;9.40;99.90;;;;;;5064334;28;20093;-31
2022/11/10 07:08:46;;;;;;;38.80;19.08;;;9.40;99.90;;;;;;5069525;28;20041;-30
2022/11/10 07:11:12;;;;;;;31.27;18.20;;;9.40;99.90;;;;;;5066938;28;20085;-34
2022/11/10 07:13:38;;;;;;;33.97;17.27;;;9.50;99.90;;;;;;5039781;28;20135;-31
2022/11/10 07:16:06;;;;;;;34.90;18.52;;;9.50;99.90;;;;;;5072973;28;20033;-33
2022/11/10 07:18:32;;;;;;;39.25;18.20;;;9.40;99.90;;;;;;5070030;28;20133;-33
2022/11/10 07:21:00;;;;;;;32.15;17.90;;;9.50;99.90;;;;;;5069475;28;20033;-33
2022/11/10 07:23:26;;;;;;;34.83;17.30;;;9.40;99.90;;;;;;5056322;28;20505;-32
2022/11/10 07:25:52;;;;;;;34.70;18.75;;;9.50;99.90;;;;;;5060328;28;20115;-31
2022/11/10 07:28:17;;;;;;;33.85;19.00;;;9.60;99.90;;;;;;5072187;28;20044;-31
2022/11/10 07:30:43;;;;;;;32.47;18.17;;;9.60;99.90;;;;;;5072930;28;20137;-32
2022/11/10 07:33:11;;;;;;;38.78;18.48;;;9.70;99.90;;;;;;5072018;28;20039;-32
2022/11/10 07:35:37;;;;;;;32.22;17.88;;;9.80;99.90;;;;;;5061445;28;20113;-34
2022/11/10 07:38:09;;;;;;;35.38;17.17;;;9.90;99.90;;;;;;5052213;28;20490;-32
2022/11/10 07:40:34;;;;;;;35.25;17.83;;;9.90;99.90;;;;;;5058131;28;20073;-31
2022/11/10 07:43:01;;;;;;;33.97;18.20;;;10.00;99.90;;;;;;5056353;28;20121;-33
2022/11/10 07:45:27;;;;;;;31.02;16.17;;;10.00;99.90;;;;;;5065655;28;20392;-33
2022/11/10 07:47:59;;;;;;;25.30;15.90;;;10.10;99.90;;;;;;5059565;28;20060;-32
2022/11/10 07:50:25;;;;;;;30.52;16.27;;;10.10;99.90;;;;;;5066084;28;20036;-35
2022/11/10 07:52:51;;;;;;;26.13;15.00;;;10.10;99.90;;;;;;5061962;28;20406;-32
2022/11/10 07:55:17;;;;;;;26.67;14.50;;;10.10;99.90;;;;;;5056447;28;20045;-33
2022/11/10 07:57:42;;;;;;;31.73;14.48;;;10.20;99.90;;;;;;5050434;28;20029;-31
2022/11/10 08:00:11;;;;;;;37.15;18.00;;;10.20;99.90;;;;;;5067647;28;20060;-31
2022/11/10 08:02:37;;;;;;;26.25;14.93;;;10.20;99.90;;;;;;5072013;28;20039;-32
2022/11/10 08:05:03;;;;;;;25.30;14.95;;;10.20;99.90;;;;;;5055699;28;20111;-32
2022/11/10 08:07:29;;;;;;;32.10;14.45;;;10.20;99.90;;;;;;5065849;28;20044;-31
2022/11/10 08:09:55;;;;;;;30.05;15.18;;;10.30;99.90;;;;;;5075924;28;20040;-33
2022/11/10 08:12:21;;;;;;;26.58;15.30;;;10.30;99.90;;;;;;5048898;28;20120;-32
2022/11/10 08:14:48;;;;;;;26.42;15.55;;;10.20;99.90;;;;;;5037962;28;20044;-33
2022/11/10 08:17:13;;;;;;;34.40;19.23;;;10.20;99.90;;;;;;5054748;28;20539;-33
2022/11/10 08:19:39;;;;;;;27.85;14.95;;;10.20;99.90;;;;;;5061608;28;20037;-33
2022/11/10 08:22:05;;;;;;;30.38;17.15;;;10.20;99.90;;;;;;5089358;28;20032;-35
2022/11/10 08:24:30;;;;;;;28.38;13.82;;;10.30;99.90;;;;;;5056151;28;20517;-31
2022/11/10 08:26:56;;;;;;;29.55;15.05;;;10.30;99.90;;;;;;5056516;28;20056;-33
2022/11/10 08:29:22;;;;;;;28.65;13.27;;;10.40;99.90;;;;;;5064055;28;20115;-32
2022/11/10 08:31:48;;;;;;;21.85;13.73;;;10.60;99.90;;;;;;5076365;28;20036;-30
2022/11/10 08:34:13;;;;;;;21.98;12.68;;;10.80;99.90;;;;;;5072823;28;20505;-34
2022/11/10 08:36:39;;;;;;;22.80;13.20;;;11.20;99.90;;;;;;5060622;28;20098;-33
2022/11/10 08:39:05;;;;;;;22.95;12.63;;;11.70;99.90;;;;;;5058885;28;20040;-35
2022/11/10 08:41:30;;;;;;;19.23;10.98;;;12.10;99.90;;;;;;5055983;28;20089;-33
2022/11/10 08:43:56;;;;;;;26.38;11.27;;;12.60;99.90;;;;;;5065905;28;20040;-32
2022/11/10 08:46:22;;;;;;;22.00;11.02;;;12.70;99.90;;;;;;5070468;28;20125;-32
2022/11/10 08:48:48;;;;;;;23.08;11.63;;;12.80;99.90;;;;;;5074128;28;20564;-33
2022/11/10 08:51:13;;;;;;;18.70;10.68;;;12.70;99.90;;;;;;5069103;28;20485;-32
2022/11/10 08:53:39;;;;;;;17.45;9.95;;;12.60;99.90;;;;;;5059589;28;20142;-33
2022/11/10 08:56:05;;;;;;;18.98;9.75;;;12.60;99.90;;;;;;5052295;28;20375;-33
2022/11/10 08:58:31;;;;;;;16.73;10.77;;;12.50;99.90;;;;;;5077360;28;20106;-31
2022/11/10 09:00:57;;;;;;;21.70;10.02;;;12.60;99.90;;;;;;5054326;28;20032;-33
2022/11/10 09:03:24;;;;;;;20.90;9.32;;;13.00;99.90;;;;;;5061580;28;20374;-31
2022/11/10 09:05:51;;;;;;;17.73;7.97;;;13.40;99.90;;;;;;5063992;28;20098;-34
2022/11/10 09:08:17;;;;;;;14.52;7.55;;;13.80;99.90;;;;;;5071937;28;20049;-31
2022/11/10 09:10:46;;;;;;;14.90;7.80;;;14.10;99.90;;;;;;5080971;28;20047;-33
2022/11/10 09:13:13;;;;;;;16.77;7.45;;;14.40;99.90;;;;;;5047416;28;20068;-32
2022/11/10 09:15:40;;;;;;;14.40;7.28;;;14.50;99.90;;;;;;5054133;28;20094;-35
2022/11/10 09:18:06;;;;;;;17.05;6.93;;;14.50;99.90;;;;;;5071244;28;20044;-33
2022/11/10 09:20:34;;;;;;;14.52;7.40;;;14.60;99.90;;;;;;5051057;28;20047;-34
2022/11/10 09:23:11;;;;;;;17.50;7.30;;;14.90;99.90;;;;;;5067380;28;20036;-34
2022/11/10 09:25:37;;;;;;;15.10;6.47;;;15.20;99.90;;;;;;5067387;28;20043;-31
2022/11/10 09:28:04;;;;;;;15.15;5.88;;;15.40;99.90;;;;;;5054650;28;20071;-33
2022/11/10 09:30:30;;;;;;;12.40;6.32;;;15.70;99.90;;;;;;5078738;28;20087;-34
2022/11/10 09:32:58;;;;;;;15.07;6.53;;;16.00;99.90;;;;;;5069405;28;20043;-33
2022/11/10 09:35:25;;;;;;;15.30;6.10;;;16.20;99.90;;;;;;5053658;28;20098;-35
2022/11/10 09:37:50;;;;;;;12.48;5.68;;;16.50;99.90;;;;;;5070778;28;20036;-34
2022/11/10 09:40:24;;;;;;;13.10;5.53;;;16.60;99.90;;;;;;5052710;28;20486;-33
2022/11/10 09:42:55;;;;;;;10.40;4.60;;;17.00;99.90;;;;;;5070543;28;20097;-33
2022/11/10 09:45:36;;;;;;;11.43;5.13;;;17.20;99.90;;;;;;5056675;28;20040;-33
2022/11/10 09:48:09;;;;;;;11.98;5.70;;;17.40;99.90;;;;;;5054851;28;20048;-33
2022/11/10 09:50:50;;;;;;;10.68;4.88;;;17.70;99.90;;;;;;5055978;28;20033;-34
2022/11/10 09:53:23;;;;;;;12.35;4.93;;;18.10;99.90;;;;;;5074516;28;20036;-33
2022/11/10 09:55:52;;;;;;;11.07;4.63;;;18.60;99.90;;;;;;5058583;28;20032;-34
2022/11/10 09:58:22;;;;;;;11.32;5.07;;;18.70;99.90;;;;;;5063449;28;20047;-34
2022/11/10 10:00:58;;;;;;;11.55;5.13;;;18.70;99.90;;;;;;5068650;28;20108;-32
2022/11/10 10:03:27;;;;;;;11.27;4.50;;;18.70;99.90;;;;;;5051202;28;20040;-31
2022/11/10 10:06:06;;;;;;;11.73;4.45;;;18.80;99.90;;;;;;5069698;28;20058;-33
2022/11/10 10:08:59;;;;;;;12.48;4.32;;;19.20;99.90;;;;;;5040827;28;20041;-34
2022/11/10 10:11:32;;;;;;;12.30;4.67;;;18.90;99.90;;;;;;5062032;28;20037;-33
2022/11/10 10:14:04;;;;;;;11.25;3.97;;;18.80;99.90;;;;;;5058963;28;20124;-32
2022/11/10 10:16:50;;;;;;;14.07;4.60;;;18.60;99.90;;;;;;5043142;28;20090;-33
2022/11/10 10:19:22;;;;;;;14.73;4.03;;;18.70;99.90;;;;;;5064853;28;20033;-32
2022/11/10 10:22:19;;;;;;;12.18;4.22;;;18.60;99.90;;;;;;5060724;28;20116;-36
2022/11/10 10:24:45;;;;;;;15.20;5.00;;;18.50;99.90;;;;;;5047797;28;20120;-34
2022/11/10 10:27:21;;;;;;;12.60;4.10;;;18.30;99.90;;;;;;5061903;28;20108;-34
2022/11/10 10:29:50;;;;;;;13.07;3.97;;;17.90;99.90;;;;;;5059512;28;20486;-34
2022/11/10 10:32:17;;;;;;;11.98;4.25;;;17.60;99.90;;;;;;5057404;28;20037;-33
2022/11/10 10:34:44;;;;;;;11.02;3.97;;;17.20;99.90;;;;;;5044825;28;20032;-32
2022/11/10 10:37:29;;;;;;;15.77;4.38;;;16.90;99.90;;;;;;5052597;28;20036;-33
2022/11/10 10:39:54;;;;;;;12.38;4.35;;;16.80;99.90;;;;;;5042793;28;20214;-32
2022/11/10 10:42:31;;;;;;;11.40;3.85;;;16.90;99.90;;;;;;5068302;28;20120;-32
2022/11/10 10:45:29;;;;;;;9.27;4.15;;;17.30;99.90;;;;;;5047099;28;20060;-36
2022/11/10 10:47:56;;;;;;;9.63;4.32;;;17.50;99.90;;;;;;5023898;28;20055;-33
2022/11/10 10:50:24;;;;;;;11.80;4.15;;;17.30;99.90;;;;;;5050805;28;20142;-33
2022/11/10 10:53:17;;;;;;;10.32;4.03;;;16.90;99.90;;;;;;5054018;28;20044;-35
2022/11/10 10:55:52;;;;;;;17.03;4.77;;;16.60;99.90;;;;;;5073172;28;20069;-32
2022/11/10 10:58:29;;;;;;;16.08;4.90;;;16.80;99.90;;;;;;5051763;28;20129;-34
2022/11/10 11:01:01;;;;;;;12.23;4.32;;;17.10;99.90;;;;;;5061907;28;20083;-33
2022/11/10 11:03:29;;;;;;;12.18;5.25;;;17.30;99.90;;;;;;5066392;28;20047;-31
2022/11/10 11:06:16;;;;;;;12.15;4.35;;;17.20;99.90;;;;;;5061010;28;20032;-33
2022/11/10 11:09:07;;;;;;;10.50;4.80;;;16.90;99.90;;;;;;5052715;28;20080;-34
2022/11/10 11:11:38;;;;;;;10.02;4.28;;;16.50;99.90;;;;;;5053603;28;20040;-36
2022/11/10 11:14:21;;;;;;;14.05;5.00;;;16.10;99.90;;;;;;5050387;28;20036;-33
2022/11/10 11:16:50;;;;;;;13.57;4.40;;;15.80;99.90;;;;;;5073291;28;20036;-33
2022/11/10 11:19:17;;;;;;;11.00;4.57;;;15.70;99.90;;;;;;5073099;28;20028;-34
2022/11/10 11:21:58;;;;;;;11.95;4.75;;;15.70;99.90;;;;;;5055954;28;20048;-33
2022/11/10 11:24:40;;;;;;;11.55;4.10;;;15.70;99.90;;;;;;5072519;28;20036;-33
2022/11/10 11:27:12;;;;;;;11.45;3.55;;;16.20;99.90;;;;;;5058808;28;20119;-33
2022/11/10 11:29:49;;;;;;;16.25;4.38;;;16.50;99.90;;;;;;5053047;28;20119;-33
2022/11/10 11:32:37;;;;;;;11.05;3.67;;;16.70;99.90;;;;;;5060961;28;20037;-34
2022/11/10 11:35:16;;;;;;;10.35;3.88;;;16.60;99.90;;;;;;5044979;28;20044;-32
2022/11/10 11:37:56;;;;;;;14.18;3.95;;;16.70;99.90;;;;;;5071271;28;20051;-33
2022/11/10 11:40:43;;;;;;;10.85;3.85;;;16.90;99.90;;;;;;5063416;28;20036;-35
2022/11/10 11:43:25;;;;;;;11.10;3.65;;;17.00;99.90;;;;;;5068506;28;20037;-34
2022/11/10 11:46:05;;;;;;;16.35;4.28;;;16.90;99.90;;;;;;5058098;28;20029;-34
2022/11/10 11:48:51;;;;;;;14.40;4.65;;;16.60;99.90;;;;;;5063561;28;20127;-33
2022/11/10 11:51:40;;;;;;;12.75;3.63;;;16.10;99.90;;;;;;5072141;28;20052;-34
2022/11/10 11:54:28;;;;;;;14.65;3.88;;;15.90;99.90;;;;;;5034759;28;20132;-33
2022/11/10 11:57:05;;;;;;;14.18;4.10;;;15.80;99.90;;;;;;5065986;28;20044;-32
2022/11/10 11:59:31;;;;;;;10.40;4.03;;;15.90;99.90;;;;;;5047456;28;20127;-33
2022/11/10 12:02:17;;;;;;;11.77;3.70;;;16.10;99.90;;;;;;5081238;28;20497;-34
2022/11/10 12:05:16;;;;;;;11.85;3.58;;;16.30;99.90;;;;;;5058297;28;20486;-34
2022/11/10 12:07:54;;;;;;;10.20;3.67;;;16.50;99.90;;;;;;5051683;28;20514;-33
2022/11/10 12:10:23;;;;;;;11.25;3.70;;;16.40;99.90;;;;;;5064864;28;20046;-33
2022/11/10 12:13:14;;;;;;;17.50;5.68;;;16.40;99.90;;;;;;5047204;28;20085;-33
2022/11/10 12:15:50;;;;;;;15.18;4.82;;;16.30;99.90;;;;;;5063747;28;20079;-33
2022/11/10 12:18:36;;;;;;;12.63;4.03;;;16.30;99.90;;;;;;5085414;28;20424;-34
2022/11/10 12:21:11;;;;;;;12.00;4.15;;;16.30;99.90;;;;;;5064190;28;20043;-33
2022/11/10 12:23:39;;;;;;;13.30;3.92;;;16.30;99.90;;;;;;5068805;28;20036;-35
2022/11/10 12:26:36;;;;;;;14.93;3.63;;;16.30;99.90;;;;;;5070228;28;20044;-32
2022/11/10 12:29:29;;;;;;;15.57;4.40;;;16.20;99.90;;;;;;5052762;28;20462;-32
2022/11/10 12:32:08;;;;;;;9.50;4.03;;;16.10;99.90;;;;;;5063639;28;20121;-32
2022/11/10 12:34:45;;;;;;;14.52;4.38;;;16.10;99.90;;;;;;5071735;28;20041;-32
2022/11/10 12:37:27;;;;;;;12.77;3.40;;;16.00;99.90;;;;;;5072853;28;20119;-34
2022/11/10 12:40:13;;;;;;;13.13;4.07;;;15.90;99.90;;;;;;5065364;28;20037;-34
2022/11/10 12:42:40;;;;;;;12.02;4.05;;;15.80;99.90;;;;;;5071523;28;20397;-33
2022/11/10 12:45:47;;;;;;;9.18;3.35;;;15.80;99.90;;;;;;5061640;28;20452;-34
2022/11/10 12:48:16;;;;;;;13.15;3.65;;;15.60;99.90;;;;;;5011783;28;20103;-35
2022/11/10 12:50:45;;;;;;;14.20;4.22;;;15.50;99.90;;;;;;5040399;28;20041;-36
2022/11/10 12:53:32;;;;;;;13.75;3.85;;;15.50;99.90;;;;;;5030589;28;20106;-33
2022/11/10 12:56:08;;;;;;;16.05;3.83;;;15.40;99.90;;;;;;5072686;28;20067;-36
2022/11/10 12:58:33;;;;;;;12.50;3.63;;;15.40;99.90;;;;;;5054734;28;20366;-35
2022/11/10 13:01:01;;;;;;;11.63;2.95;;;15.30;99.90;;;;;;5072096;28;20044;-35
2022/11/10 13:03:36;;;;;;;12.73;3.22;;;15.30;99.90;;;;;;5059106;28;20039;-35